createdAt,value
2019-02-24T00:01:12.897Z,6.93
2019-02-24T00:03:41.454Z,7.30
2019-02-24T00:06:09.920Z,6.53
2019-02-24T00:08:38.403Z,6.67
2019-02-24T00:11:06.890Z,7.40
2019-02-24T00:13:35.360Z,7.40
2019-02-24T00:16:03.842Z,7.10
2019-02-24T00:18:32.303Z,7.07
2019-02-24T00:21:00.958Z,6.90
2019-02-24T00:23:29.418Z,7.00
2019-02-24T00:25:57.882Z,7.63
2019-02-24T00:28:26.363Z,6.73
2019-02-24T00:30:54.838Z,7.13
2019-02-24T00:33:23.400Z,7.40
2019-02-24T00:35:51.887Z,6.77
2019-02-24T00:38:20.882Z,6.60
2019-02-24T00:40:49.630Z,6.50
2019-02-24T00:43:18.191Z,6.53
2019-02-24T00:45:46.818Z,6.80
2019-02-24T00:48:15.303Z,6.60
2019-02-24T00:50:43.835Z,6.83
2019-02-24T00:53:12.471Z,6.53
2019-02-24T00:55:40.954Z,6.63
2019-02-24T00:58:16.023Z,6.60
2019-02-24T01:00:39.773Z,7.10
2019-02-24T01:03:08.438Z,5.90
2019-02-24T01:05:37.243Z,6.13
2019-02-24T01:08:05.774Z,6.63
2019-02-24T01:10:34.235Z,6.20
2019-02-24T01:13:02.726Z,6.40
2019-02-24T01:15:31.185Z,6.37
2019-02-24T01:17:59.674Z,6.47
2019-02-24T01:20:28.231Z,6.57
2019-02-24T01:22:56.740Z,6.70
2019-02-24T01:25:25.250Z,6.73
2019-02-24T01:27:53.779Z,6.27
2019-02-24T01:30:22.242Z,6.93
2019-02-24T01:32:50.730Z,7.67
2019-02-24T01:35:19.195Z,7.00
2019-02-24T01:37:47.851Z,7.17
2019-02-24T01:40:16.310Z,7.90
2019-02-24T01:42:44.770Z,7.17
2019-02-24T01:45:13.327Z,6.47
2019-02-24T01:47:41.783Z,6.73
2019-02-24T01:50:10.411Z,6.87
2019-02-24T01:52:38.902Z,6.20
2019-02-24T01:55:07.531Z,6.57
2019-02-24T01:57:36.014Z,7.00
2019-02-24T02:00:06.941Z,6.40
2019-02-24T02:02:35.462Z,6.80
2019-02-24T02:05:05.114Z,6.33
2019-02-24T02:07:33.646Z,6.83
2019-02-24T02:10:02.126Z,6.53
2019-02-24T02:12:30.610Z,6.20
2019-02-24T02:14:59.135Z,6.50
2019-02-24T02:17:27.615Z,6.03
2019-02-24T02:19:56.243Z,6.47
2019-02-24T02:22:24.795Z,6.20
2019-02-24T02:24:53.259Z,6.20
2019-02-24T02:27:21.746Z,5.80
2019-02-24T02:29:50.302Z,6.17
2019-02-24T02:32:18.788Z,6.10
2019-02-24T02:34:47.246Z,6.50
2019-02-24T02:37:15.739Z,6.53
2019-02-24T02:39:44.203Z,6.87
2019-02-24T02:42:12.756Z,6.07
2019-02-24T02:44:41.384Z,6.30
2019-02-24T02:47:09.954Z,7.00
2019-02-24T02:49:38.492Z,6.83
2019-02-24T02:52:07.079Z,6.80
2019-02-24T02:54:35.568Z,6.93
2019-02-24T02:57:04.247Z,6.07
2019-02-24T02:59:32.726Z,5.83
2019-02-24T03:02:01.190Z,6.47
2019-02-24T03:04:29.679Z,6.07
2019-02-24T03:06:59.778Z,6.27
2019-02-24T03:09:28.335Z,6.27
2019-02-24T03:11:56.795Z,6.47
2019-02-24T03:14:25.303Z,6.13
2019-02-24T03:16:53.909Z,5.97
2019-02-24T03:19:22.415Z,5.80
2019-02-24T03:21:50.877Z,6.00
2019-02-24T03:24:19.423Z,5.83
2019-02-24T03:26:47.908Z,5.93
2019-02-24T03:29:16.439Z,5.40
2019-02-24T03:31:45.004Z,5.63
2019-02-24T03:34:13.592Z,5.47
2019-02-24T03:36:42.074Z,5.63
2019-02-24T03:39:10.534Z,5.87
2019-02-24T03:41:39.091Z,5.53
2019-02-24T03:44:07.551Z,5.83
2019-02-24T03:46:36.039Z,5.97
2019-02-24T03:49:04.642Z,5.60
2019-02-24T03:51:33.138Z,6.03
2019-02-24T03:54:01.742Z,6.53
2019-02-24T03:56:30.417Z,5.90
2019-02-24T03:58:59.117Z,6.03
2019-02-24T04:01:27.736Z,6.53
2019-02-24T04:04:05.186Z,5.97
2019-02-24T04:06:33.718Z,5.80
2019-02-24T04:09:02.211Z,5.80
2019-02-24T04:11:30.672Z,6.20
2019-02-24T04:13:59.311Z,5.60
2019-02-24T04:16:27.855Z,6.23
2019-02-24T04:18:56.351Z,5.33
2019-02-24T04:21:24.888Z,5.93
2019-02-24T04:23:53.351Z,6.63
2019-02-24T04:26:21.845Z,6.83
2019-02-24T04:28:50.370Z,5.90
2019-02-24T04:31:18.856Z,5.70
2019-02-24T04:33:47.460Z,6.67
2019-02-24T04:36:15.943Z,6.63
2019-02-24T04:38:44.415Z,6.07
2019-02-24T04:41:12.967Z,6.60
2019-02-24T04:43:41.429Z,6.23
2019-02-24T04:46:10.006Z,6.03
2019-02-24T04:48:38.475Z,6.00
2019-02-24T04:51:07.079Z,5.57
2019-02-24T04:53:35.562Z,5.73
2019-02-24T04:56:04.095Z,5.90
2019-02-24T04:58:32.583Z,5.70
2019-02-24T05:01:01.051Z,5.53
2019-02-24T05:03:29.899Z,6.10
2019-02-24T05:05:58.463Z,5.97
2019-02-24T05:08:26.998Z,5.90
2019-02-24T05:10:55.550Z,5.87
2019-02-24T05:13:24.074Z,6.40
2019-02-24T05:15:52.578Z,5.30
2019-02-24T05:18:21.104Z,5.27
2019-02-24T05:20:49.592Z,5.60
2019-02-24T05:23:18.056Z,5.30
2019-02-24T05:25:46.555Z,6.00
2019-02-24T05:28:15.032Z,5.50
2019-02-24T05:30:43.555Z,5.27
2019-02-24T05:33:12.115Z,5.80
2019-02-24T05:35:40.577Z,6.10
2019-02-24T05:38:09.130Z,5.83
2019-02-24T05:40:37.690Z,5.67
2019-02-24T05:43:06.185Z,5.43
2019-02-24T05:45:34.711Z,5.30
2019-02-24T05:48:03.300Z,5.63
2019-02-24T05:50:31.835Z,6.50
2019-02-24T05:53:00.337Z,6.23
2019-02-24T05:55:28.892Z,5.70
2019-02-24T05:57:57.355Z,5.87
2019-02-24T06:00:25.838Z,5.70
2019-02-24T06:02:54.395Z,6.03
2019-02-24T06:05:22.878Z,6.10
2019-02-24T06:07:51.567Z,6.07
2019-02-24T06:10:20.055Z,5.50
2019-02-24T06:12:48.535Z,5.93
2019-02-24T06:15:17.095Z,5.50
2019-02-24T06:17:45.584Z,5.50
2019-02-24T06:20:14.146Z,6.10
2019-02-24T06:22:42.711Z,5.77
2019-02-24T06:25:11.242Z,5.07
2019-02-24T06:27:39.805Z,4.97
2019-02-24T06:30:09.047Z,5.50
2019-02-24T06:32:37.579Z,5.00
2019-02-24T06:35:26.999Z,5.33
2019-02-24T06:37:55.531Z,5.27
2019-02-24T06:40:24.043Z,5.00
2019-02-24T06:42:52.522Z,4.80
2019-02-24T06:45:20.979Z,4.80
2019-02-24T06:47:49.476Z,5.10
2019-02-24T06:50:18.067Z,5.40
2019-02-24T06:52:46.523Z,5.00
2019-02-24T06:55:15.007Z,5.03
2019-02-24T06:57:43.477Z,5.23
2019-02-24T07:00:14.404Z,4.43
2019-02-24T07:02:42.354Z,4.70
2019-02-24T07:05:10.872Z,5.03
2019-02-24T07:07:39.402Z,4.90
2019-02-24T07:10:08.229Z,5.00
2019-02-24T07:12:36.723Z,5.00
2019-02-24T07:15:07.792Z,4.63
2019-02-24T07:17:36.319Z,4.83
2019-02-24T07:20:06.737Z,5.43
2019-02-24T07:22:35.354Z,5.57
2019-02-24T07:25:04.854Z,5.47
2019-02-24T07:27:33.406Z,5.50
2019-02-24T07:30:01.875Z,6.00
2019-02-24T07:32:30.361Z,5.63
2019-02-24T07:34:58.891Z,6.10
2019-02-24T07:37:27.387Z,5.70
2019-02-24T07:39:56.043Z,5.93
2019-02-24T07:42:24.535Z,5.90
2019-02-24T07:44:54.311Z,6.00
2019-02-24T07:47:22.827Z,5.73
2019-02-24T07:49:51.314Z,5.43
2019-02-24T07:52:19.775Z,5.93
2019-02-24T07:54:48.262Z,5.53
2019-02-24T07:57:16.795Z,5.90
2019-02-24T07:59:45.367Z,6.00
2019-02-24T08:02:13.943Z,5.60
2019-02-24T08:04:42.402Z,5.90
2019-02-24T08:07:10.862Z,5.77
2019-02-24T08:09:39.346Z,5.90
2019-02-24T08:12:07.818Z,5.67
2019-02-24T08:14:36.350Z,5.47
2019-02-24T08:17:04.920Z,5.53
2019-02-24T08:19:33.411Z,5.70
2019-02-24T08:22:01.966Z,5.40
2019-02-24T08:24:30.430Z,5.40
2019-02-24T08:26:58.894Z,5.80
2019-02-24T08:29:29.023Z,5.53
2019-02-24T08:31:57.929Z,5.40
2019-02-24T08:34:26.415Z,5.23
2019-02-24T08:36:54.879Z,5.40
2019-02-24T08:39:23.438Z,5.17
2019-02-24T08:41:51.923Z,5.30
2019-02-24T08:44:22.157Z,4.90
2019-02-24T08:46:50.774Z,4.77
2019-02-24T08:49:19.240Z,4.93
2019-02-24T08:51:47.889Z,4.93
2019-02-24T08:54:16.351Z,5.20
2019-02-24T08:56:44.818Z,5.00
2019-02-24T08:59:13.307Z,5.00
2019-02-24T09:01:41.915Z,5.10
2019-02-24T09:04:10.379Z,4.83
2019-02-24T09:06:38.851Z,4.50
2019-02-24T09:09:07.343Z,5.30
2019-02-24T09:11:35.879Z,5.23
2019-02-24T09:14:04.370Z,4.73
2019-02-24T09:16:32.842Z,4.60
2019-02-24T09:19:01.511Z,4.83
2019-02-24T09:21:30.056Z,5.37
2019-02-24T09:23:58.612Z,4.93
2019-02-24T09:26:27.116Z,5.57
2019-02-24T09:28:55.582Z,4.97
2019-02-24T09:31:24.066Z,4.83
2019-02-24T09:33:52.530Z,5.67
2019-02-24T09:36:21.019Z,4.73
2019-02-24T09:38:49.479Z,5.00
2019-02-24T09:41:18.043Z,5.10
2019-02-24T09:43:46.506Z,4.90
2019-02-24T09:46:14.975Z,4.90
2019-02-24T09:48:43.531Z,4.93
2019-02-24T09:51:11.990Z,6.20
2019-02-24T09:53:40.534Z,5.83
2019-02-24T09:56:09.026Z,6.20
2019-02-24T09:58:37.585Z,6.13
2019-02-24T10:01:10.766Z,5.73
2019-02-24T10:03:36.400Z,5.13
2019-02-24T10:06:05.111Z,5.70
2019-02-24T10:08:33.651Z,5.63
2019-02-24T10:11:02.113Z,5.53
2019-02-24T10:13:30.595Z,5.17
2019-02-24T10:15:59.086Z,5.50
2019-02-24T10:18:27.584Z,5.07
2019-02-24T10:20:56.046Z,5.83
2019-02-24T10:23:24.538Z,5.97
2019-02-24T10:25:53.083Z,5.70
2019-02-24T10:28:21.647Z,5.57
2019-02-24T10:30:50.178Z,5.23
2019-02-24T10:33:18.671Z,5.80
2019-02-24T10:35:47.151Z,5.50
2019-02-24T10:38:15.730Z,5.20
2019-02-24T10:40:44.399Z,5.53
2019-02-24T10:43:12.866Z,5.23
2019-02-24T10:45:41.359Z,4.90
2019-02-24T10:48:13.989Z,5.07
2019-02-24T10:50:40.107Z,4.87
2019-02-24T10:53:08.571Z,5.67
2019-02-24T10:55:37.136Z,5.40
2019-02-24T10:58:05.611Z,5.60
2019-02-24T11:00:34.506Z,5.30
2019-02-24T11:03:02.971Z,5.20
2019-02-24T11:05:31.802Z,5.47
2019-02-24T11:08:00.269Z,5.40
2019-02-24T11:10:28.805Z,5.40
2019-02-24T11:12:57.395Z,5.50
2019-02-24T11:15:26.018Z,5.40
2019-02-24T11:17:54.606Z,5.50
2019-02-24T11:20:23.070Z,5.27
2019-02-24T11:22:51.626Z,5.20
2019-02-24T11:25:20.087Z,4.87
2019-02-24T11:27:48.578Z,5.20
2019-02-24T11:30:17.205Z,4.80
2019-02-24T11:32:46.213Z,5.10
2019-02-24T11:35:14.839Z,5.13
2019-02-24T11:37:43.510Z,5.03
2019-02-24T11:40:16.824Z,4.57
2019-02-24T11:42:45.359Z,4.23
2019-02-24T11:45:13.903Z,4.33
2019-02-24T11:47:42.472Z,4.97
2019-02-24T11:50:12.174Z,4.77
2019-02-24T11:52:40.736Z,4.43
2019-02-24T11:55:10.466Z,4.67
2019-02-24T11:57:39.103Z,4.40
2019-02-24T12:00:10.979Z,4.67
2019-02-24T12:02:41.624Z,4.80
2019-02-24T12:05:10.007Z,4.77
2019-02-24T12:07:38.519Z,5.00
2019-02-24T12:10:17.924Z,3.83
2019-02-24T12:12:46.382Z,4.97
2019-02-24T12:15:15.258Z,4.57
2019-02-24T12:17:43.899Z,4.60
2019-02-24T12:20:13.901Z,4.60
2019-02-24T12:22:42.435Z,4.90
2019-02-24T12:25:13.930Z,4.50
2019-02-24T12:27:42.467Z,5.10
2019-02-24T12:30:12.675Z,5.33
2019-02-24T12:32:41.234Z,5.10
2019-02-24T12:35:09.777Z,4.60
2019-02-24T12:37:38.283Z,4.93
2019-02-24T12:40:09.382Z,4.87
2019-02-24T12:42:37.914Z,4.30
2019-02-24T12:45:08.415Z,5.23
2019-02-24T12:47:36.884Z,4.63
2019-02-24T12:50:08.859Z,4.50
2019-02-24T12:52:37.462Z,4.40
2019-02-24T12:55:07.496Z,4.70
2019-02-24T12:57:36.055Z,4.57
2019-02-24T13:00:11.623Z,4.67
2019-02-24T13:02:40.228Z,4.43
2019-02-24T13:05:08.836Z,4.43
2019-02-24T13:07:37.471Z,4.40
2019-02-24T13:10:16.507Z,4.40
2019-02-24T13:12:45.139Z,4.70
2019-02-24T13:15:13.771Z,4.47
2019-02-24T13:17:42.518Z,4.17
2019-02-24T13:20:11.656Z,4.20
2019-02-24T13:22:40.451Z,4.67
2019-02-24T13:25:11.350Z,4.77
2019-02-24T13:27:39.883Z,4.37
2019-02-24T13:30:11.535Z,4.23
2019-02-24T13:32:40.067Z,4.70
2019-02-24T13:35:09.392Z,4.70
2019-02-24T13:37:39.284Z,4.40
2019-02-24T13:40:16.155Z,4.60
2019-02-24T13:42:44.815Z,4.30
2019-02-24T13:45:21.179Z,4.03
2019-02-24T13:47:49.735Z,4.30
2019-02-24T13:50:18.210Z,4.00
2019-02-24T13:52:46.763Z,4.37
2019-02-24T13:55:15.883Z,4.20
2019-02-24T13:57:44.382Z,4.23
2019-02-24T14:00:18.807Z,4.13
2019-02-24T14:02:47.266Z,3.83
2019-02-24T14:05:15.836Z,4.33
2019-02-24T14:07:44.478Z,4.37
2019-02-24T14:10:14.278Z,3.80
2019-02-24T14:12:42.879Z,3.67
2019-02-24T14:15:15.526Z,4.83
2019-02-24T14:17:44.066Z,4.53
2019-02-24T14:20:16.762Z,4.90
2019-02-24T14:22:45.294Z,4.20
2019-02-24T14:25:14.723Z,4.20
2019-02-24T14:27:43.355Z,4.30
2019-02-24T14:30:14.023Z,4.53
2019-02-24T14:32:44.010Z,4.23
2019-02-24T14:35:18.726Z,4.90
2019-02-24T14:37:47.258Z,4.37
2019-02-24T14:40:15.827Z,4.40
2019-02-24T14:42:44.390Z,4.83
2019-02-24T14:45:25.204Z,4.93
2019-02-24T14:47:53.727Z,3.93
2019-02-24T14:50:22.258Z,4.67
2019-02-24T14:52:50.754Z,4.23
2019-02-24T14:55:19.219Z,4.17
2019-02-24T14:57:47.710Z,4.50
2019-02-24T15:00:21.570Z,4.10
2019-02-24T15:02:50.207Z,4.47
2019-02-24T15:05:18.831Z,4.70
2019-02-24T15:07:47.394Z,4.50
2019-02-24T15:10:21.022Z,4.20
2019-02-24T15:12:49.564Z,4.33
2019-02-24T15:15:33.123Z,4.13
2019-02-24T15:17:59.374Z,3.93
2019-02-24T15:20:27.935Z,4.30
2019-02-24T15:22:56.415Z,4.40
2019-02-24T15:25:24.912Z,4.80
2019-02-24T15:27:53.370Z,4.17
2019-02-24T15:30:27.973Z,4.40
2019-02-24T15:32:56.510Z,4.70
2019-02-24T15:35:25.069Z,4.77
2019-02-24T15:37:54.522Z,4.50
2019-02-24T15:40:23.080Z,4.40
2019-02-24T15:42:51.903Z,4.50
2019-02-24T15:45:20.719Z,4.63
2019-02-24T15:47:49.327Z,4.70
2019-02-24T15:50:17.926Z,4.50
2019-02-24T15:52:46.559Z,5.50
2019-02-24T15:55:15.941Z,5.10
2019-02-24T15:57:44.595Z,4.33
2019-02-24T16:00:21.167Z,4.70
2019-02-24T16:02:49.667Z,4.53
2019-02-24T16:05:18.198Z,4.50
2019-02-24T16:07:46.687Z,5.00
2019-02-24T16:10:18.234Z,4.97
2019-02-24T16:12:46.875Z,4.87
2019-02-24T16:15:16.965Z,5.10
2019-02-24T16:17:45.418Z,5.73
2019-02-24T16:20:16.803Z,5.60
2019-02-24T16:22:45.294Z,5.50
2019-02-24T16:25:13.951Z,5.50
2019-02-24T16:27:42.486Z,5.10
2019-02-24T16:30:14.084Z,5.70
2019-02-24T16:32:42.549Z,5.33
2019-02-24T16:35:27.054Z,5.53
2019-02-24T16:37:55.615Z,5.57
2019-02-24T16:40:26.199Z,5.80
2019-02-24T16:42:54.691Z,6.07
2019-02-24T16:45:23.259Z,5.10
2019-02-24T16:47:52.058Z,5.37
2019-02-24T16:50:22.840Z,5.40
2019-02-24T16:52:51.411Z,5.53
2019-02-24T16:55:19.946Z,4.87
2019-02-24T16:57:48.486Z,4.93
2019-02-24T17:00:19.382Z,4.67
2019-02-24T17:02:47.871Z,5.20
2019-02-24T17:05:16.538Z,5.50
2019-02-24T17:07:45.234Z,5.03
2019-02-24T17:10:18.994Z,5.17
2019-02-24T17:12:47.863Z,4.90
2019-02-24T17:15:16.318Z,5.00
2019-02-24T17:17:44.815Z,5.00
2019-02-24T17:20:21.542Z,5.10
2019-02-24T17:22:50.035Z,4.70
2019-02-24T17:25:18.569Z,4.80
2019-02-24T17:27:47.103Z,5.13
2019-02-24T17:30:16.533Z,5.20
2019-02-24T17:32:45.259Z,5.50
2019-02-24T17:35:14.387Z,5.27
2019-02-24T17:37:43.087Z,5.30
2019-02-24T17:40:19.747Z,5.17
2019-02-24T17:42:48.422Z,5.13
2019-02-24T17:45:17.452Z,5.20
2019-02-24T17:47:46.118Z,4.93
2019-02-24T17:50:18.047Z,5.40
2019-02-24T17:52:46.621Z,5.20
2019-02-24T17:55:16.211Z,5.53
2019-02-24T17:57:44.751Z,5.47
2019-02-24T18:00:20.442Z,5.63
2019-02-24T18:02:49.205Z,5.33
2019-02-24T18:05:18.721Z,6.90
2019-02-24T18:07:47.549Z,6.37
2019-02-24T18:10:16.156Z,7.20
2019-02-24T18:12:44.721Z,7.70
2019-02-24T18:15:13.556Z,6.67
2019-02-24T18:17:42.158Z,8.17
2019-02-24T18:20:21.463Z,6.87
2019-02-24T18:22:50.094Z,7.73
2019-02-24T18:25:18.589Z,7.40
2019-02-24T18:27:47.190Z,6.97
2019-02-24T18:30:23.421Z,7.77
2019-02-24T18:32:51.974Z,7.20
2019-02-24T18:35:20.507Z,7.23
2019-02-24T18:37:49.064Z,6.73
2019-02-24T18:40:17.780Z,6.97
2019-02-24T18:42:46.382Z,6.30
2019-02-24T18:45:15.307Z,6.37
2019-02-24T18:47:43.800Z,5.53
2019-02-24T18:50:15.864Z,7.07
2019-02-24T18:52:44.484Z,6.90
2019-02-24T18:55:13.516Z,6.40
2019-02-24T18:57:43.387Z,6.50
2019-02-24T19:00:17.063Z,6.50
2019-02-24T19:02:45.619Z,7.00
2019-02-24T19:05:14.325Z,7.30
2019-02-24T19:07:43.058Z,7.50
2019-02-24T19:10:16.958Z,8.67
2019-02-24T19:12:45.579Z,7.53
2019-02-24T19:15:16.420Z,6.47
2019-02-24T19:17:44.884Z,5.90
2019-02-24T19:20:16.604Z,6.97
2019-02-24T19:22:45.097Z,7.50
2019-02-24T19:25:14.172Z,7.40
2019-02-24T19:27:42.840Z,8.60
2019-02-24T19:30:13.675Z,8.00
2019-02-24T19:32:42.309Z,9.00
2019-02-24T19:35:12.507Z,7.73
2019-02-24T19:37:41.206Z,7.23
2019-02-24T19:40:17.779Z,7.80
2019-02-24T19:42:46.383Z,6.80
2019-02-24T19:45:16.810Z,7.37
2019-02-24T19:47:45.421Z,6.70
2019-02-24T19:50:18.291Z,6.83
2019-02-24T19:52:46.757Z,6.80
2019-02-24T19:55:16.339Z,6.83
2019-02-24T19:57:44.980Z,7.47
2019-02-24T20:00:21.231Z,8.07
2019-02-24T20:02:49.876Z,6.07
2019-02-24T20:05:19.351Z,6.40
2019-02-24T20:08:08.787Z,6.10
2019-02-24T20:10:37.713Z,6.30
2019-02-24T20:13:06.386Z,6.13
2019-02-24T20:15:35.872Z,6.53
2019-02-24T20:18:04.479Z,5.73
2019-02-24T20:20:33.110Z,6.33
2019-02-24T20:23:01.679Z,6.63
2019-02-24T20:25:30.179Z,6.33
2019-02-24T20:27:58.738Z,6.97
2019-02-24T20:30:31.602Z,7.10
2019-02-24T20:33:00.091Z,7.50
2019-02-24T20:35:28.647Z,7.20
2019-02-24T20:37:57.102Z,7.67
2019-02-24T20:40:25.597Z,7.17
2019-02-24T20:42:54.141Z,7.43
2019-02-24T20:45:23.740Z,7.73
2019-02-24T20:47:52.519Z,7.83
2019-02-24T20:50:23.726Z,8.07
2019-02-24T20:52:52.186Z,7.97
2019-02-24T20:55:20.814Z,8.53
2019-02-24T20:57:49.343Z,8.83
2019-02-24T21:00:20.834Z,8.50
2019-02-24T21:02:49.323Z,7.53
2019-02-24T21:05:17.999Z,7.60
2019-02-24T21:07:46.503Z,6.90
2019-02-24T21:10:15.044Z,6.77
2019-02-24T21:12:43.742Z,6.80
2019-02-24T21:15:17.217Z,6.77
2019-02-24T21:17:45.918Z,7.20
2019-02-24T21:20:17.371Z,6.80
2019-02-24T21:22:45.965Z,6.37
2019-02-24T21:25:14.510Z,6.93
2019-02-24T21:27:43.449Z,6.60
2019-02-24T21:30:14.950Z,7.17
2019-02-24T21:32:43.486Z,7.70
2019-02-24T21:35:12.862Z,6.60
2019-02-24T21:37:41.326Z,6.30
2019-02-24T21:40:15.943Z,6.50
2019-02-24T21:42:44.443Z,6.80
2019-02-24T21:45:21.051Z,5.80
2019-02-24T21:47:49.579Z,6.50
2019-02-24T21:50:18.210Z,6.43
2019-02-24T21:52:46.835Z,5.63
2019-02-24T21:55:15.668Z,5.70
2019-02-24T21:57:44.280Z,6.43
2019-02-24T22:00:18.612Z,6.60
2019-02-24T22:02:47.239Z,6.40
2019-02-24T22:05:15.937Z,6.40
2019-02-24T22:07:44.855Z,6.27
2019-02-24T22:10:16.941Z,6.90
2019-02-24T22:12:45.527Z,6.87
2019-02-24T22:15:25.463Z,7.03
2019-02-24T22:17:54.194Z,6.40
2019-02-24T22:20:22.759Z,6.40
2019-02-24T22:22:51.236Z,6.07
2019-02-24T22:25:19.766Z,6.77
2019-02-24T22:27:48.272Z,6.73
2019-02-24T22:30:19.110Z,5.97
2019-02-24T22:32:47.711Z,6.30
2019-02-24T22:35:16.204Z,6.17
2019-02-24T22:37:44.743Z,6.37
2019-02-24T22:40:16.436Z,6.13
2019-02-24T22:42:45.046Z,13.07
2019-02-24T22:45:18.775Z,26.17
2019-02-24T22:47:47.552Z,6.90
2019-02-24T22:50:16.970Z,6.50
2019-02-24T22:52:46.464Z,6.40
2019-02-24T22:55:16.650Z,6.33
2019-02-24T22:57:45.115Z,6.03
2019-02-24T23:00:29.701Z,7.23
2019-02-24T23:02:58.586Z,6.10
2019-02-24T23:05:27.292Z,6.03
2019-02-24T23:07:56.231Z,5.80
2019-02-24T23:10:25.007Z,6.20
2019-02-24T23:12:53.562Z,6.03
2019-02-24T23:15:22.124Z,6.60
2019-02-24T23:17:50.758Z,6.07
2019-02-24T23:20:19.263Z,6.37
2019-02-24T23:22:47.747Z,5.90
2019-02-24T23:25:16.203Z,6.03
2019-02-24T23:27:44.690Z,6.30
2019-02-24T23:30:13.218Z,6.20
2019-02-24T23:32:41.707Z,6.10
2019-02-24T23:35:31.047Z,5.17
2019-02-24T23:37:59.506Z,4.70
2019-02-24T23:40:27.972Z,5.17
2019-02-24T23:42:56.666Z,4.93
2019-02-24T23:45:25.194Z,5.30
2019-02-24T23:47:53.706Z,5.30
2019-02-24T23:50:22.252Z,5.20
2019-02-24T23:52:50.803Z,4.23
2019-02-24T23:55:19.259Z,4.53
2019-02-24T23:57:47.746Z,4.33
